sensor_id;sensor_type;location;lat;lon;timestamp;pressure;altitude;pressure_sealevel;temperature;humidity
5691;BME280;2870;42.680;23.364;2023-04-16T00:01:16;94601.53;;;12.45;66.03
5691;BME280;2870;42.680;23.364;2023-04-16T00:03:43;94594.97;;;12.33;66.56
5691;BME280;2870;42.680;23.364;2023-04-16T00:06:11;94596.50;;;12.16;67.62
5691;BME280;2870;42.680;23.364;2023-04-16T00:08:38;94596.03;;;12.10;68.01
5691;BME280;2870;42.680;23.364;2023-04-16T00:11:05;94601.13;;;12.22;66.83
5691;BME280;2870;42.680;23.364;2023-04-16T00:13:32;94595.22;;;12.27;65.60
5691;BME280;2870;42.680;23.364;2023-04-16T00:15:59;94596.91;;;12.40;64.66
5691;BME280;2870;42.680;23.364;2023-04-16T00:18:27;94592.03;;;12.13;65.71
5691;BME280;2870;42.680;23.364;2023-04-16T00:20:54;94592.81;;;11.97;67.27
5691;BME280;2870;42.680;23.364;2023-04-16T00:23:22;94589.13;;;11.94;66.51
5691;BME280;2870;42.680;23.364;2023-04-16T00:25:50;94595.47;;;11.94;65.31
5691;BME280;2870;42.680;23.364;2023-04-16T00:28:18;94600.28;;;11.84;66.06
5691;BME280;2870;42.680;23.364;2023-04-16T00:30:45;94598.66;;;11.81;67.13
5691;BME280;2870;42.680;23.364;2023-04-16T00:33:12;94596.59;;;11.82;67.53
5691;BME280;2870;42.680;23.364;2023-04-16T00:35:38;94590.59;;;11.95;67.10
5691;BME280;2870;42.680;23.364;2023-04-16T00:38:05;94590.59;;;11.95;66.86
5691;BME280;2870;42.680;23.364;2023-04-16T00:40:33;94587.06;;;11.77;66.93
5691;BME280;2870;42.680;23.364;2023-04-16T00:43:01;94593.78;;;11.47;68.01
5691;BME280;2870;42.680;23.364;2023-04-16T00:45:27;94584.69;;;11.39;67.77
5691;BME280;2870;42.680;23.364;2023-04-16T00:47:54;94588.97;;;11.40;68.23
5691;BME280;2870;42.680;23.364;2023-04-16T00:50:22;94582.88;;;11.34;69.05
5691;BME280;2870;42.680;23.364;2023-04-16T00:52:49;94583.06;;;11.36;69.19
5691;BME280;2870;42.680;23.364;2023-04-16T00:55:16;94575.88;;;11.43;68.48
5691;BME280;2870;42.680;23.364;2023-04-16T00:57:44;94591.22;;;11.41;68.64
5691;BME280;2870;42.680;23.364;2023-04-16T01:00:12;94591.00;;;11.30;69.02
5691;BME280;2870;42.680;23.364;2023-04-16T01:02:39;94587.19;;;11.18;70.30
5691;BME280;2870;42.680;23.364;2023-04-16T01:05:06;94587.84;;;11.08;68.96
5691;BME280;2870;42.680;23.364;2023-04-16T01:07:33;94585.59;;;11.07;71.05
5691;BME280;2870;42.680;23.364;2023-04-16T01:10:01;94586.84;;;10.96;71.33
5691;BME280;2870;42.680;23.364;2023-04-16T01:12:28;94576.75;;;10.93;72.19
5691;BME280;2870;42.680;23.364;2023-04-16T01:14:56;94586.50;;;10.92;74.26
5691;BME280;2870;42.680;23.364;2023-04-16T01:17:23;94581.84;;;10.87;75.92
5691;BME280;2870;42.680;23.364;2023-04-16T01:19:50;94585.13;;;10.76;76.19
5691;BME280;2870;42.680;23.364;2023-04-16T01:22:19;94577.66;;;10.78;76.00
5691;BME280;2870;42.680;23.364;2023-04-16T01:24:45;94588.13;;;10.78;76.75
5691;BME280;2870;42.680;23.364;2023-04-16T01:27:13;94583.31;;;10.71;75.79
5691;BME280;2870;42.680;23.364;2023-04-16T01:29:40;94590.13;;;10.60;75.68
5691;BME280;2870;42.680;23.364;2023-04-16T01:32:07;94583.38;;;10.63;74.23
5691;BME280;2870;42.680;23.364;2023-04-16T01:34:33;94580.41;;;10.61;75.72
5691;BME280;2870;42.680;23.364;2023-04-16T01:37:01;94571.06;;;10.58;74.81
5691;BME280;2870;42.680;23.364;2023-04-16T01:39:30;94574.13;;;10.53;76.11
5691;BME280;2870;42.680;23.364;2023-04-16T01:41:57;94568.72;;;10.47;76.50
5691;BME280;2870;42.680;23.364;2023-04-16T01:44:23;94575.19;;;10.57;75.58
5691;BME280;2870;42.680;23.364;2023-04-16T01:46:50;94571.31;;;10.53;75.97
5691;BME280;2870;42.680;23.364;2023-04-16T01:49:17;94575.81;;;10.48;77.12
5691;BME280;2870;42.680;23.364;2023-04-16T01:51:44;94571.88;;;10.51;75.89
5691;BME280;2870;42.680;23.364;2023-04-16T01:54:11;94569.91;;;10.44;75.71
5691;BME280;2870;42.680;23.364;2023-04-16T01:56:39;94574.81;;;10.36;76.03
5691;BME280;2870;42.680;23.364;2023-04-16T01:59:06;94567.19;;;10.54;77.26
5691;BME280;2870;42.680;23.364;2023-04-16T02:01:33;94561.44;;;10.69;75.80
5691;BME280;2870;42.680;23.364;2023-04-16T02:04:00;94570.09;;;11.23;72.89
5691;BME280;2870;42.680;23.364;2023-04-16T02:06:27;94564.69;;;11.00;73.74
5691;BME280;2870;42.680;23.364;2023-04-16T02:08:54;94564.91;;;10.77;73.59
5691;BME280;2870;42.680;23.364;2023-04-16T02:11:21;94565.00;;;10.70;69.58
5691;BME280;2870;42.680;23.364;2023-04-16T02:13:49;94565.50;;;10.76;67.88
5691;BME280;2870;42.680;23.364;2023-04-16T02:16:15;94566.66;;;10.73;66.51
5691;BME280;2870;42.680;23.364;2023-04-16T02:18:43;94561.84;;;10.66;66.08
5691;BME280;2870;42.680;23.364;2023-04-16T02:21:10;94560.88;;;10.88;66.78
5691;BME280;2870;42.680;23.364;2023-04-16T02:23:36;94554.78;;;10.82;66.91
5691;BME280;2870;42.680;23.364;2023-04-16T02:26:05;94555.44;;;10.73;67.31
5691;BME280;2870;42.680;23.364;2023-04-16T02:28:32;94556.13;;;10.98;64.06
5691;BME280;2870;42.680;23.364;2023-04-16T02:31:00;94565.03;;;10.87;64.78
5691;BME280;2870;42.680;23.364;2023-04-16T02:33:27;94559.50;;;10.79;65.21
5691;BME280;2870;42.680;23.364;2023-04-16T02:35:56;94554.94;;;10.67;65.05
5691;BME280;2870;42.680;23.364;2023-04-16T02:38:23;94554.81;;;10.57;63.97
5691;BME280;2870;42.680;23.364;2023-04-16T02:40:50;94559.84;;;10.58;65.14
5691;BME280;2870;42.680;23.364;2023-04-16T02:43:16;94555.97;;;10.96;64.43
5691;BME280;2870;42.680;23.364;2023-04-16T02:45:43;94552.78;;;10.75;64.73
5691;BME280;2870;42.680;23.364;2023-04-16T02:48:11;94550.13;;;10.59;64.75
5691;BME280;2870;42.680;23.364;2023-04-16T02:50:38;94504.81;;;10.21;64.39
5691;BME280;2870;42.680;23.364;2023-04-16T02:53:05;94544.19;;;10.55;65.77
5691;BME280;2870;42.680;23.364;2023-04-16T02:55:32;94552.75;;;10.57;65.99
5691;BME280;2870;42.680;23.364;2023-04-16T02:58:00;94510.50;;;10.38;66.75
5691;BME280;2870;42.680;23.364;2023-04-16T03:00:27;94546.66;;;10.51;66.82
5691;BME280;2870;42.680;23.364;2023-04-16T03:02:54;94541.47;;;10.65;68.01
5691;BME280;2870;42.680;23.364;2023-04-16T03:05:22;94544.94;;;10.56;67.52
5691;BME280;2870;42.680;23.364;2023-04-16T03:07:49;94545.56;;;10.47;67.56
5691;BME280;2870;42.680;23.364;2023-04-16T03:10:20;94518.72;;;10.36;67.69
5691;BME280;2870;42.680;23.364;2023-04-16T03:12:48;94552.50;;;10.46;68.06
5691;BME280;2870;42.680;23.364;2023-04-16T03:15:15;94555.19;;;10.36;68.30
5691;BME280;2870;42.680;23.364;2023-04-16T03:17:42;94553.91;;;10.54;67.93
5691;BME280;2870;42.680;23.364;2023-04-16T03:20:09;94557.94;;;10.44;68.22
5691;BME280;2870;42.680;23.364;2023-04-16T03:22:38;94559.97;;;10.43;68.13
5691;BME280;2870;42.680;23.364;2023-04-16T03:25:05;94554.03;;;10.39;68.04
5691;BME280;2870;42.680;23.364;2023-04-16T03:27:32;94554.13;;;10.49;67.83
5691;BME280;2870;42.680;23.364;2023-04-16T03:29:59;94552.88;;;10.42;69.23
5691;BME280;2870;42.680;23.364;2023-04-16T03:32:26;94552.16;;;10.42;68.80
5691;BME280;2870;42.680;23.364;2023-04-16T03:34:54;94541.63;;;10.50;68.56
5691;BME280;2870;42.680;23.364;2023-04-16T03:37:21;94555.81;;;10.52;68.79
5691;BME280;2870;42.680;23.364;2023-04-16T03:39:49;94556.94;;;10.74;67.99
5691;BME280;2870;42.680;23.364;2023-04-16T03:42:18;94556.19;;;10.73;67.76
5691;BME280;2870;42.680;23.364;2023-04-16T03:44:44;94558.38;;;10.57;69.03
5691;BME280;2870;42.680;23.364;2023-04-16T03:47:11;94560.66;;;10.51;69.63
5691;BME280;2870;42.680;23.364;2023-04-16T03:49:38;94565.94;;;10.47;71.21
5691;BME280;2870;42.680;23.364;2023-04-16T03:52:06;94563.34;;;10.42;72.15
5691;BME280;2870;42.680;23.364;2023-04-16T03:54:33;94561.88;;;10.41;72.29
5691;BME280;2870;42.680;23.364;2023-04-16T03:57:02;94565.59;;;10.43;71.39
5691;BME280;2870;42.680;23.364;2023-04-16T03:59:28;94565.19;;;10.47;69.84
5691;BME280;2870;42.680;23.364;2023-04-16T04:01:55;94563.78;;;10.38;69.98
5691;BME280;2870;42.680;23.364;2023-04-16T04:04:22;94575.97;;;10.33;70.16
5691;BME280;2870;42.680;23.364;2023-04-16T04:06:49;94569.03;;;10.34;71.99
5691;BME280;2870;42.680;23.364;2023-04-16T04:09:16;94574.63;;;10.34;71.91
5691;BME280;2870;42.680;23.364;2023-04-16T04:11:43;94577.25;;;10.32;71.65
5691;BME280;2870;42.680;23.364;2023-04-16T04:14:11;94575.53;;;10.37;71.63
5691;BME280;2870;42.680;23.364;2023-04-16T04:16:38;94569.53;;;10.40;71.46
5691;BME280;2870;42.680;23.364;2023-04-16T04:19:04;94586.75;;;10.37;70.86
5691;BME280;2870;42.680;23.364;2023-04-16T04:21:31;94586.00;;;10.36;71.46
5691;BME280;2870;42.680;23.364;2023-04-16T04:23:58;94578.47;;;10.46;72.40
5691;BME280;2870;42.680;23.364;2023-04-16T04:26:25;94589.34;;;10.42;72.34
5691;BME280;2870;42.680;23.364;2023-04-16T04:28:51;94597.50;;;10.48;72.61
5691;BME280;2870;42.680;23.364;2023-04-16T04:31:20;94601.13;;;10.41;71.94
5691;BME280;2870;42.680;23.364;2023-04-16T04:33:46;94597.41;;;10.38;72.78
5691;BME280;2870;42.680;23.364;2023-04-16T04:36:13;94602.81;;;10.44;70.65
5691;BME280;2870;42.680;23.364;2023-04-16T04:38:40;94595.91;;;10.37;69.64
5691;BME280;2870;42.680;23.364;2023-04-16T04:41:07;94606.66;;;10.48;70.85
5691;BME280;2870;42.680;23.364;2023-04-16T04:43:33;94615.75;;;10.31;69.96
5691;BME280;2870;42.680;23.364;2023-04-16T04:46:00;94610.50;;;10.35;71.75
5691;BME280;2870;42.680;23.364;2023-04-16T04:48:29;94613.31;;;10.60;70.85
5691;BME280;2870;42.680;23.364;2023-04-16T04:50:56;94607.94;;;10.80;68.94
5691;BME280;2870;42.680;23.364;2023-04-16T04:53:22;94614.19;;;10.88;68.56
5691;BME280;2870;42.680;23.364;2023-04-16T04:55:49;94612.84;;;10.97;67.42
5691;BME280;2870;42.680;23.364;2023-04-16T04:58:16;94612.56;;;10.85;68.65
5691;BME280;2870;42.680;23.364;2023-04-16T05:00:43;94613.53;;;10.55;68.70
5691;BME280;2870;42.680;23.364;2023-04-16T05:03:10;94614.41;;;10.40;69.17
5691;BME280;2870;42.680;23.364;2023-04-16T05:05:39;94615.09;;;10.48;69.37
5691;BME280;2870;42.680;23.364;2023-04-16T05:08:06;94611.44;;;10.63;65.74
5691;BME280;2870;42.680;23.364;2023-04-16T05:10:32;94608.63;;;10.63;67.64
5691;BME280;2870;42.680;23.364;2023-04-16T05:13:00;94605.16;;;10.97;66.21
5691;BME280;2870;42.680;23.364;2023-04-16T05:15:26;94601.28;;;11.27;64.93
5691;BME280;2870;42.680;23.364;2023-04-16T05:17:54;94595.28;;;11.31;65.85
5691;BME280;2870;42.680;23.364;2023-04-16T05:20:21;94596.16;;;11.16;64.44
5691;BME280;2870;42.680;23.364;2023-04-16T05:22:49;94598.19;;;10.81;65.43
5691;BME280;2870;42.680;23.364;2023-04-16T05:25:16;94603.31;;;10.92;66.64
5691;BME280;2870;42.680;23.364;2023-04-16T05:27:43;94603.69;;;11.13;65.80
5691;BME280;2870;42.680;23.364;2023-04-16T05:30:11;94605.63;;;10.86;66.62
5691;BME280;2870;42.680;23.364;2023-04-16T05:32:38;94603.06;;;10.80;66.91
5691;BME280;2870;42.680;23.364;2023-04-16T05:35:06;94606.38;;;10.86;67.06
5691;BME280;2870;42.680;23.364;2023-04-16T05:37:34;94608.94;;;10.92;66.10
5691;BME280;2870;42.680;23.364;2023-04-16T05:40:02;94607.63;;;11.10;66.56
5691;BME280;2870;42.680;23.364;2023-04-16T05:42:30;94598.50;;;11.27;65.62
5691;BME280;2870;42.680;23.364;2023-04-16T05:44:56;94601.72;;;11.06;66.46
5691;BME280;2870;42.680;23.364;2023-04-16T05:47:23;94600.50;;;11.52;64.87
5691;BME280;2870;42.680;23.364;2023-04-16T05:49:50;94560.34;;;11.07;65.64
5691;BME280;2870;42.680;23.364;2023-04-16T05:52:18;94603.59;;;11.38;65.97
5691;BME280;2870;42.680;23.364;2023-04-16T05:54:45;94617.53;;;11.11;64.99
5691;BME280;2870;42.680;23.364;2023-04-16T05:57:13;94619.78;;;11.13;66.08
5691;BME280;2870;42.680;23.364;2023-04-16T05:59:40;94616.91;;;11.38;65.51
5691;BME280;2870;42.680;23.364;2023-04-16T06:02:09;94617.09;;;11.57;63.20
5691;BME280;2870;42.680;23.364;2023-04-16T06:04:35;94619.69;;;11.73;62.96
5691;BME280;2870;42.680;23.364;2023-04-16T06:07:02;94597.94;;;11.46;64.28
5691;BME280;2870;42.680;23.364;2023-04-16T06:09:29;94603.59;;;11.38;66.20
5691;BME280;2870;42.680;23.364;2023-04-16T06:11:56;94602.75;;;11.11;64.57
5691;BME280;2870;42.680;23.364;2023-04-16T06:14:24;94608.97;;;11.27;63.94
5691;BME280;2870;42.680;23.364;2023-04-16T06:16:51;94599.47;;;11.39;66.67
5691;BME280;2870;42.680;23.364;2023-04-16T06:19:18;94602.78;;;11.46;64.06
5691;BME280;2870;42.680;23.364;2023-04-16T06:21:45;94598.97;;;11.68;64.10
5691;BME280;2870;42.680;23.364;2023-04-16T06:24:12;94608.78;;;11.77;63.88
5691;BME280;2870;42.680;23.364;2023-04-16T06:26:39;94602.28;;;11.57;62.17
5691;BME280;2870;42.680;23.364;2023-04-16T06:29:06;94603.69;;;11.65;63.61
5691;BME280;2870;42.680;23.364;2023-04-16T06:31:34;94599.88;;;11.88;63.60
5691;BME280;2870;42.680;23.364;2023-04-16T06:34:01;94594.75;;;11.94;61.92
5691;BME280;2870;42.680;23.364;2023-04-16T06:36:28;94598.56;;;11.89;62.07
5691;BME280;2870;42.680;23.364;2023-04-16T06:38:55;94599.56;;;12.74;60.73
5691;BME280;2870;42.680;23.364;2023-04-16T06:41:22;94600.09;;;13.10;58.72
5691;BME280;2870;42.680;23.364;2023-04-16T06:43:51;94576.66;;;12.88;59.78
5691;BME280;2870;42.680;23.364;2023-04-16T06:46:18;94602.78;;;13.08;60.34
5691;BME280;2870;42.680;23.364;2023-04-16T06:48:46;94605.34;;;13.33;61.02
5691;BME280;2870;42.680;23.364;2023-04-16T06:51:12;94598.53;;;13.36;60.46
5691;BME280;2870;42.680;23.364;2023-04-16T06:53:39;94609.53;;;13.51;59.20
5691;BME280;2870;42.680;23.364;2023-04-16T06:56:07;94611.59;;;13.99;57.88
5691;BME280;2870;42.680;23.364;2023-04-16T06:58:34;94617.09;;;13.87;56.89
5691;BME280;2870;42.680;23.364;2023-04-16T07:01:01;94608.19;;;13.81;58.18
5691;BME280;2870;42.680;23.364;2023-04-16T07:03:28;94602.38;;;13.89;59.56
5691;BME280;2870;42.680;23.364;2023-04-16T07:05:56;94596.44;;;14.04;59.39
5691;BME280;2870;42.680;23.364;2023-04-16T07:08:23;94599.19;;;14.33;58.17
5691;BME280;2870;42.680;23.364;2023-04-16T07:10:50;94599.38;;;14.25;58.06
5691;BME280;2870;42.680;23.364;2023-04-16T07:13:19;94606.00;;;14.49;57.09
5691;BME280;2870;42.680;23.364;2023-04-16T07:15:46;94606.00;;;14.40;57.05
5691;BME280;2870;42.680;23.364;2023-04-16T07:18:13;94614.34;;;14.28;57.79
5691;BME280;2870;42.680;23.364;2023-04-16T07:20:40;94616.19;;;14.04;58.90
5691;BME280;2870;42.680;23.364;2023-04-16T07:23:08;94615.31;;;13.63;59.87
5691;BME280;2870;42.680;23.364;2023-04-16T07:25:35;94606.41;;;13.47;60.04
5691;BME280;2870;42.680;23.364;2023-04-16T07:28:02;94615.38;;;14.32;56.76
5691;BME280;2870;42.680;23.364;2023-04-16T07:30:29;94617.22;;;14.69;56.79
5691;BME280;2870;42.680;23.364;2023-04-16T07:32:58;94601.03;;;14.69;56.81
5691;BME280;2870;42.680;23.364;2023-04-16T07:35:25;94612.97;;;14.89;54.78
5691;BME280;2870;42.680;23.364;2023-04-16T07:37:53;94607.41;;;15.01;56.65
5691;BME280;2870;42.680;23.364;2023-04-16T07:40:22;94610.00;;;15.18;54.98
5691;BME280;2870;42.680;23.364;2023-04-16T07:42:49;94607.13;;;14.97;55.49
5691;BME280;2870;42.680;23.364;2023-04-16T07:45:16;94609.72;;;15.14;53.72
5691;BME280;2870;42.680;23.364;2023-04-16T07:47:43;94606.19;;;15.78;53.21
5691;BME280;2870;42.680;23.364;2023-04-16T07:50:10;94607.38;;;16.29;51.86
5691;BME280;2870;42.680;23.364;2023-04-16T07:52:37;94616.47;;;15.95;51.37
5691;BME280;2870;42.680;23.364;2023-04-16T07:55:06;94597.72;;;15.56;54.14
5691;BME280;2870;42.680;23.364;2023-04-16T07:57:34;94596.44;;;15.69;53.20
5691;BME280;2870;42.680;23.364;2023-04-16T08:00:01;94605.69;;;16.03;52.70
5691;BME280;2870;42.680;23.364;2023-04-16T08:02:30;94606.81;;;15.55;54.29
5691;BME280;2870;42.680;23.364;2023-04-16T08:04:57;94599.31;;;15.59;56.29
5691;BME280;2870;42.680;23.364;2023-04-16T08:07:24;94602.91;;;15.60;54.46
5691;BME280;2870;42.680;23.364;2023-04-16T08:09:51;94605.19;;;16.39;52.99
5691;BME280;2870;42.680;23.364;2023-04-16T08:12:18;94601.56;;;16.95;49.97
5691;BME280;2870;42.680;23.364;2023-04-16T08:14:47;94595.09;;;16.48;50.84
5691;BME280;2870;42.680;23.364;2023-04-16T08:17:14;94588.38;;;17.12;51.76
5691;BME280;2870;42.680;23.364;2023-04-16T08:19:42;94595.75;;;17.89;50.07
5691;BME280;2870;42.680;23.364;2023-04-16T08:22:09;94590.84;;;18.15;51.23
5691;BME280;2870;42.680;23.364;2023-04-16T08:24:36;94589.63;;;18.32;51.66
5691;BME280;2870;42.680;23.364;2023-04-16T08:27:03;94586.59;;;18.42;46.52
5691;BME280;2870;42.680;23.364;2023-04-16T08:29:30;94592.38;;;18.05;46.54
5691;BME280;2870;42.680;23.364;2023-04-16T08:31:59;94586.72;;;18.18;47.48
5691;BME280;2870;42.680;23.364;2023-04-16T08:34:26;94584.44;;;17.78;47.17
5691;BME280;2870;42.680;23.364;2023-04-16T08:36:53;94577.53;;;17.69;50.11
5691;BME280;2870;42.680;23.364;2023-04-16T08:39:20;94574.22;;;17.98;50.31
5691;BME280;2870;42.680;23.364;2023-04-16T08:41:47;94569.91;;;18.48;48.46
5691;BME280;2870;42.680;23.364;2023-04-16T08:44:19;94581.59;;;19.07;46.44
5691;BME280;2870;42.680;23.364;2023-04-16T08:46:46;94555.72;;;19.85;43.27
5691;BME280;2870;42.680;23.364;2023-04-16T08:49:16;94571.50;;;19.18;44.08
5691;BME280;2870;42.680;23.364;2023-04-16T08:51:47;94577.59;;;18.98;44.16
5691;BME280;2870;42.680;23.364;2023-04-16T08:54:30;94577.56;;;20.10;46.72
5691;BME280;2870;42.680;23.364;2023-04-16T08:56:58;94566.53;;;19.59;44.27
5691;BME280;2870;42.680;23.364;2023-04-16T08:59:26;94565.66;;;19.71;44.91
5691;BME280;2870;42.680;23.364;2023-04-16T09:01:56;94560.63;;;19.28;44.17
5691;BME280;2870;42.680;23.364;2023-04-16T09:04:26;94572.84;;;20.01;43.75
5691;BME280;2870;42.680;23.364;2023-04-16T09:06:54;94560.50;;;20.56;43.23
5691;BME280;2870;42.680;23.364;2023-04-16T09:09:22;94551.78;;;20.52;40.39
5691;BME280;2870;42.680;23.364;2023-04-16T09:11:50;94561.66;;;19.62;43.17
5691;BME280;2870;42.680;23.364;2023-04-16T09:14:17;94558.00;;;19.46;42.69
5691;BME280;2870;42.680;23.364;2023-04-16T09:16:44;94560.50;;;20.10;42.75
5691;BME280;2870;42.680;23.364;2023-04-16T09:19:11;94551.91;;;20.40;42.20
5691;BME280;2870;42.680;23.364;2023-04-16T09:21:40;94559.47;;;19.61;43.15
5691;BME280;2870;42.680;23.364;2023-04-16T09:24:07;94558.00;;;19.59;43.95
5691;BME280;2870;42.680;23.364;2023-04-16T09:26:34;94556.16;;;19.80;43.40
5691;BME280;2870;42.680;23.364;2023-04-16T09:29:01;94548.22;;;19.35;44.17
5691;BME280;2870;42.680;23.364;2023-04-16T09:31:29;94557.19;;;21.25;41.81
5691;BME280;2870;42.680;23.364;2023-04-16T09:34:02;94564.16;;;22.05;39.38
5691;BME280;2870;42.680;23.364;2023-04-16T09:36:30;94534.78;;;20.70;41.18
5691;BME280;2870;42.680;23.364;2023-04-16T09:38:59;94555.91;;;20.64;42.23
5691;BME280;2870;42.680;23.364;2023-04-16T09:41:27;94557.00;;;21.36;38.76
5691;BME280;2870;42.680;23.364;2023-04-16T09:43:55;94545.44;;;21.01;41.25
5691;BME280;2870;42.680;23.364;2023-04-16T09:46:23;94548.72;;;21.94;39.20
5691;BME280;2870;42.680;23.364;2023-04-16T09:48:50;94543.41;;;21.68;40.70
5691;BME280;2870;42.680;23.364;2023-04-16T09:51:17;94540.38;;;21.64;39.67
5691;BME280;2870;42.680;23.364;2023-04-16T09:53:43;94543.63;;;20.60;40.64
5691;BME280;2870;42.680;23.364;2023-04-16T09:56:12;94520.69;;;19.97;42.69
5691;BME280;2870;42.680;23.364;2023-04-16T09:58:39;94530.94;;;19.88;42.67
5691;BME280;2870;42.680;23.364;2023-04-16T10:01:10;94529.84;;;19.95;42.24
5691;BME280;2870;42.680;23.364;2023-04-16T10:03:38;94535.66;;;19.54;42.95
5691;BME280;2870;42.680;23.364;2023-04-16T10:06:13;94528.97;;;18.92;43.66
5691;BME280;2870;42.680;23.364;2023-04-16T10:08:42;94533.00;;;18.62;43.32
5691;BME280;2870;42.680;23.364;2023-04-16T10:11:11;94522.16;;;18.44;44.16
5691;BME280;2870;42.680;23.364;2023-04-16T10:13:38;94517.59;;;18.92;43.59
5691;BME280;2870;42.680;23.364;2023-04-16T10:16:06;94515.72;;;19.68;41.87
5691;BME280;2870;42.680;23.364;2023-04-16T10:18:36;94517.13;;;20.12;42.69
5691;BME280;2870;42.680;23.364;2023-04-16T10:21:03;94512.88;;;19.54;41.10
5691;BME280;2870;42.680;23.364;2023-04-16T10:23:31;94487.19;;;18.67;41.85
5691;BME280;2870;42.680;23.364;2023-04-16T10:25:59;94514.78;;;19.49;41.63
5691;BME280;2870;42.680;23.364;2023-04-16T10:28:29;94503.41;;;19.49;41.65
5691;BME280;2870;42.680;23.364;2023-04-16T10:30:56;94507.63;;;20.37;40.82
5691;BME280;2870;42.680;23.364;2023-04-16T10:33:26;94511.09;;;19.61;40.59
5691;BME280;2870;42.680;23.364;2023-04-16T10:36:06;94502.16;;;19.52;40.34
5691;BME280;2870;42.680;23.364;2023-04-16T10:38:37;94499.56;;;20.02;41.74
5691;BME280;2870;42.680;23.364;2023-04-16T10:41:05;94501.69;;;19.72;39.96
5691;BME280;2870;42.680;23.364;2023-04-16T10:43:39;94505.25;;;20.47;38.07
5691;BME280;2870;42.680;23.364;2023-04-16T10:46:20;94499.84;;;20.53;38.59
5691;BME280;2870;42.680;23.364;2023-04-16T10:48:47;94501.41;;;20.88;37.70
5691;BME280;2870;42.680;23.364;2023-04-16T10:51:27;94496.28;;;21.18;36.87
5691;BME280;2870;42.680;23.364;2023-04-16T10:53:55;94500.88;;;21.25;37.30
5691;BME280;2870;42.680;23.364;2023-04-16T10:56:22;94490.09;;;20.90;41.34
5691;BME280;2870;42.680;23.364;2023-04-16T10:58:52;94494.75;;;21.49;38.03
5691;BME280;2870;42.680;23.364;2023-04-16T11:01:28;94494.47;;;21.94;36.50
5691;BME280;2870;42.680;23.364;2023-04-16T11:03:57;94491.56;;;21.40;37.63
5691;BME280;2870;42.680;23.364;2023-04-16T11:06:25;94479.28;;;20.71;39.01
5691;BME280;2870;42.680;23.364;2023-04-16T11:08:52;94469.19;;;19.47;41.03
5691;BME280;2870;42.680;23.364;2023-04-16T11:11:20;94482.41;;;19.70;41.47
5691;BME280;2870;42.680;23.364;2023-04-16T11:13:47;94446.25;;;19.73;39.61
5691;BME280;2870;42.680;23.364;2023-04-16T11:16:15;94472.56;;;19.87;39.65
5691;BME280;2870;42.680;23.364;2023-04-16T11:18:44;94475.31;;;20.01;39.55
5691;BME280;2870;42.680;23.364;2023-04-16T11:21:11;94469.16;;;19.61;39.84
5691;BME280;2870;42.680;23.364;2023-04-16T11:23:45;94467.34;;;19.68;40.18
5691;BME280;2870;42.680;23.364;2023-04-16T11:26:23;94454.41;;;19.51;40.69
5691;BME280;2870;42.680;23.364;2023-04-16T11:28:51;94454.41;;;19.65;40.28
5691;BME280;2870;42.680;23.364;2023-04-16T11:31:20;94453.28;;;19.42;41.04
5691;BME280;2870;42.680;23.364;2023-04-16T11:33:47;94457.09;;;19.33;42.35
5691;BME280;2870;42.680;23.364;2023-04-16T11:36:14;94452.38;;;19.97;41.07
5691;BME280;2870;42.680;23.364;2023-04-16T11:38:41;94441.72;;;20.13;40.02
5691;BME280;2870;42.680;23.364;2023-04-16T11:41:09;94440.63;;;19.45;40.50
5691;BME280;2870;42.680;23.364;2023-04-16T11:43:36;94434.50;;;19.65;40.46
5691;BME280;2870;42.680;23.364;2023-04-16T11:46:04;94430.31;;;19.81;40.39
5691;BME280;2870;42.680;23.364;2023-04-16T11:48:48;94436.59;;;19.35;41.89
5691;BME280;2870;42.680;23.364;2023-04-16T11:51:16;94430.38;;;19.24;42.08
5691;BME280;2870;42.680;23.364;2023-04-16T11:53:48;94423.56;;;19.45;41.12
5691;BME280;2870;42.680;23.364;2023-04-16T11:56:15;94429.81;;;18.98;41.85
5691;BME280;2870;42.680;23.364;2023-04-16T11:59:05;94407.00;;;19.26;41.93
5691;BME280;2870;42.680;23.364;2023-04-16T12:01:33;94413.44;;;19.85;42.65
5691;BME280;2870;42.680;23.364;2023-04-16T12:04:02;94412.16;;;20.36;40.45
5691;BME280;2870;42.680;23.364;2023-04-16T12:06:29;94401.91;;;19.68;42.74
5691;BME280;2870;42.680;23.364;2023-04-16T12:08:56;94396.16;;;19.22;41.62
5691;BME280;2870;42.680;23.364;2023-04-16T12:11:36;94398.09;;;19.47;41.04
5691;BME280;2870;42.680;23.364;2023-04-16T12:14:07;94382.69;;;19.52;42.07
5691;BME280;2870;42.680;23.364;2023-04-16T12:16:34;94388.28;;;19.80;40.66
5691;BME280;2870;42.680;23.364;2023-04-16T12:19:03;94382.41;;;20.07;40.78
5691;BME280;2870;42.680;23.364;2023-04-16T12:21:37;94383.88;;;20.08;41.33
5691;BME280;2870;42.680;23.364;2023-04-16T12:24:05;94380.38;;;19.94;40.45
5691;BME280;2870;42.680;23.364;2023-04-16T12:26:37;94374.69;;;19.19;42.04
5691;BME280;2870;42.680;23.364;2023-04-16T12:29:17;94379.53;;;19.76;42.53
5691;BME280;2870;42.680;23.364;2023-04-16T12:31:44;94379.66;;;20.09;39.33
5691;BME280;2870;42.680;23.364;2023-04-16T12:34:13;94376.97;;;20.13;40.47
5691;BME280;2870;42.680;23.364;2023-04-16T12:36:41;94381.66;;;20.07;40.54
5691;BME280;2870;42.680;23.364;2023-04-16T12:39:08;94375.97;;;20.07;40.29
5691;BME280;2870;42.680;23.364;2023-04-16T12:41:36;94375.03;;;19.71;40.74
5691;BME280;2870;42.680;23.364;2023-04-16T12:44:04;94361.94;;;19.50;43.38
5691;BME280;2870;42.680;23.364;2023-04-16T12:46:34;94381.13;;;19.20;45.62
5691;BME280;2870;42.680;23.364;2023-04-16T12:49:01;94370.63;;;19.09;44.81
5691;BME280;2870;42.680;23.364;2023-04-16T12:51:30;94368.72;;;19.13;44.15
5691;BME280;2870;42.680;23.364;2023-04-16T12:53:57;94364.44;;;18.98;43.98
5691;BME280;2870;42.680;23.364;2023-04-16T12:56:24;94367.44;;;18.45;49.40
5691;BME280;2870;42.680;23.364;2023-04-16T12:58:50;94363.34;;;18.21;48.56
5691;BME280;2870;42.680;23.364;2023-04-16T13:01:17;94359.56;;;18.44;52.02
5691;BME280;2870;42.680;23.364;2023-04-16T13:03:45;94347.13;;;18.37;55.56
5691;BME280;2870;42.680;23.364;2023-04-16T13:06:12;94351.97;;;18.48;54.89
5691;BME280;2870;42.680;23.364;2023-04-16T13:08:41;94342.97;;;18.38;47.80
5691;BME280;2870;42.680;23.364;2023-04-16T13:11:09;94337.38;;;18.68;51.23
5691;BME280;2870;42.680;23.364;2023-04-16T13:13:36;94332.22;;;17.95;49.21